createdAt,value
2018-10-02T00:02:06.966Z,92.30
2018-10-02T00:04:36.152Z,92.30
2018-10-02T00:07:05.272Z,92.30
2018-10-02T00:09:34.385Z,92.40
2018-10-02T00:12:08.678Z,92.50
2018-10-02T00:14:38.426Z,92.50
2018-10-02T00:17:07.473Z,92.50
2018-10-02T00:19:36.515Z,92.60
2018-10-02T00:22:05.584Z,92.70
2018-10-02T00:24:34.643Z,92.70
2018-10-02T00:27:03.617Z,92.70
2018-10-02T00:29:32.725Z,92.70
2018-10-02T00:32:01.963Z,92.60
2018-10-02T00:34:32.350Z,92.70
2018-10-02T00:37:01.390Z,92.80
2018-10-02T00:39:30.383Z,92.80
2018-10-02T00:41:59.377Z,92.90
2018-10-02T00:44:28.370Z,92.90
2018-10-02T00:46:57.324Z,92.90
2018-10-02T00:49:26.497Z,93.00
2018-10-02T00:51:55.453Z,93.00
2018-10-02T00:54:24.480Z,93.10
2018-10-02T00:56:53.448Z,93.10
2018-10-02T00:59:22.458Z,93.40
2018-10-02T01:01:51.569Z,93.10
2018-10-02T01:04:20.688Z,93.10
2018-10-02T01:06:49.690Z,93.20
2018-10-02T01:09:18.726Z,93.10
2018-10-02T01:11:47.760Z,93.20
2018-10-02T01:14:16.806Z,93.20
2018-10-02T01:16:45.888Z,93.20
2018-10-02T01:19:14.986Z,93.20
2018-10-02T01:21:43.961Z,93.20
2018-10-02T01:24:13.074Z,93.20
2018-10-02T01:26:42.262Z,93.20
2018-10-02T01:29:11.244Z,93.20
2018-10-02T01:31:40.271Z,93.20
2018-10-02T01:34:09.372Z,93.20
2018-10-02T01:36:38.395Z,93.20
2018-10-02T01:39:09.031Z,93.10
2018-10-02T01:41:38.047Z,93.20
2018-10-02T01:44:07.144Z,93.30
2018-10-02T01:46:36.148Z,93.30
2018-10-02T01:49:05.283Z,93.30
2018-10-02T01:51:34.767Z,93.30
2018-10-02T01:54:03.719Z,93.30
2018-10-02T01:56:32.803Z,93.30
2018-10-02T01:59:01.854Z,93.40
2018-10-02T02:01:37.531Z,93.40
2018-10-02T02:04:06.585Z,93.40
2018-10-02T02:06:36.472Z,93.50
2018-10-02T02:09:06.384Z,93.40
2018-10-02T02:11:35.582Z,93.50
2018-10-02T02:14:04.746Z,93.60
2018-10-02T02:16:33.804Z,93.60
2018-10-02T02:19:02.834Z,93.60
2018-10-02T02:21:31.918Z,93.60
2018-10-02T02:24:00.933Z,93.60
2018-10-02T02:26:29.843Z,93.60
2018-10-02T02:28:58.901Z,93.90
2018-10-02T02:31:27.880Z,93.70
2018-10-02T02:33:56.852Z,93.60
2018-10-02T02:36:25.769Z,93.60
2018-10-02T02:38:54.736Z,93.60
2018-10-02T02:41:23.771Z,93.70
2018-10-02T02:43:52.860Z,93.70
2018-10-02T02:46:21.909Z,93.80
2018-10-02T02:48:56.077Z,93.80
2018-10-02T02:51:31.423Z,93.90
2018-10-02T02:54:00.387Z,93.90
2018-10-02T02:56:29.987Z,93.90
2018-10-02T02:58:59.887Z,93.90
2018-10-02T03:01:29.538Z,93.90
2018-10-02T03:03:58.929Z,93.90
2018-10-02T03:06:27.917Z,93.90
2018-10-02T03:08:56.881Z,93.90
2018-10-02T03:11:25.792Z,93.90
2018-10-02T03:13:54.773Z,94.00
2018-10-02T03:16:23.727Z,94.00
2018-10-02T03:18:53.286Z,94.10
2018-10-02T03:21:22.241Z,94.10
2018-10-02T03:23:51.186Z,94.10
2018-10-02T03:26:20.148Z,94.10
2018-10-02T03:28:49.082Z,94.10
2018-10-02T03:31:18.024Z,94.30
2018-10-02T03:33:46.981Z,94.20
2018-10-02T03:36:15.920Z,94.20
2018-10-02T03:38:45.444Z,94.20
2018-10-02T03:41:14.448Z,94.20
2018-10-02T03:43:43.393Z,94.20
2018-10-02T03:46:12.330Z,94.20
2018-10-02T03:48:41.305Z,94.30
2018-10-02T03:51:10.222Z,94.40
2018-10-02T03:53:39.139Z,94.40
2018-10-02T03:56:08.141Z,94.50
2018-10-02T03:58:37.043Z,94.40
2018-10-02T04:01:06.306Z,94.50
2018-10-02T04:03:35.343Z,94.50
2018-10-02T04:06:04.199Z,94.60
2018-10-02T04:08:33.183Z,94.60
2018-10-02T04:11:02.653Z,94.70
2018-10-02T04:13:31.689Z,94.70
2018-10-02T04:16:00.633Z,94.70
2018-10-02T04:18:29.565Z,94.70
2018-10-02T04:20:58.506Z,94.80
2018-10-02T04:23:27.485Z,94.80
2018-10-02T04:25:56.449Z,94.70
2018-10-02T04:28:25.927Z,94.70
2018-10-02T04:30:54.800Z,94.80
2018-10-02T04:33:23.852Z,94.80
2018-10-02T04:35:53.196Z,94.80
2018-10-02T04:38:22.296Z,94.70
2018-10-02T04:40:51.898Z,94.70
2018-10-02T04:43:20.903Z,94.70
2018-10-02T04:45:50.667Z,94.80
2018-10-02T04:48:19.602Z,94.80
2018-10-02T04:50:49.420Z,94.90
2018-10-02T04:53:21.159Z,94.90
2018-10-02T04:55:50.122Z,94.80
2018-10-02T04:58:19.051Z,94.90
2018-10-02T05:00:48.090Z,94.80
2018-10-02T05:03:17.265Z,94.80
2018-10-02T05:05:46.244Z,94.90
2018-10-02T05:08:15.306Z,94.90
2018-10-02T05:10:44.335Z,94.90
2018-10-02T05:13:13.418Z,94.80
2018-10-02T05:15:42.866Z,94.80
2018-10-02T05:18:11.850Z,94.70
2018-10-02T05:20:41.025Z,94.60
2018-10-02T05:23:10.212Z,94.60
2018-10-02T05:25:39.313Z,94.50
2018-10-02T05:28:08.362Z,94.40
2018-10-02T05:30:37.360Z,94.50
2018-10-02T05:33:06.560Z,94.30
2018-10-02T05:35:35.866Z,94.40
2018-10-02T05:38:04.900Z,94.30
2018-10-02T05:40:33.947Z,94.30
2018-10-02T05:43:02.897Z,94.10
2018-10-02T05:45:31.967Z,94.10
2018-10-02T05:48:01.065Z,94.10
2018-10-02T05:50:30.127Z,94.00
2018-10-02T05:52:59.247Z,93.90
2018-10-02T05:55:28.319Z,93.90
2018-10-02T05:57:57.367Z,93.80
2018-10-02T06:00:26.445Z,93.70
2018-10-02T06:02:55.576Z,93.60
2018-10-02T06:05:24.623Z,93.60
2018-10-02T06:07:53.621Z,93.50
2018-10-02T06:10:22.619Z,93.30
2018-10-02T06:12:51.608Z,93.00
2018-10-02T06:15:20.662Z,93.10
2018-10-02T06:17:49.615Z,92.80
2018-10-02T06:20:23.369Z,92.70
2018-10-02T06:22:53.800Z,92.70
2018-10-02T06:25:22.899Z,92.70
2018-10-02T06:27:51.910Z,92.30
2018-10-02T06:30:20.952Z,91.90
2018-10-02T06:32:50.099Z,91.50
2018-10-02T06:35:19.174Z,91.10
2018-10-02T06:37:48.158Z,90.80
2018-10-02T06:40:17.289Z,90.10
2018-10-02T06:42:46.383Z,90.00
2018-10-02T06:45:15.447Z,88.70
2018-10-02T06:47:44.430Z,87.80
2018-10-02T06:50:13.333Z,87.50
2018-10-02T06:52:42.527Z,86.20
2018-10-02T06:55:11.189Z,84.80
2018-10-02T06:57:40.175Z,83.40
2018-10-02T07:00:09.340Z,83.20
2018-10-02T07:02:38.310Z,82.70
2018-10-02T07:05:07.327Z,83.30
2018-10-02T07:07:36.443Z,83.50
2018-10-02T07:10:06.397Z,83.90
2018-10-02T07:12:35.557Z,82.10
2018-10-02T07:15:04.692Z,80.50
2018-10-02T07:17:34.162Z,81.00
2018-10-02T07:20:03.216Z,80.70
2018-10-02T07:22:32.265Z,81.50
2018-10-02T07:25:01.300Z,81.60
2018-10-02T07:27:31.056Z,82.60
2018-10-02T07:29:59.915Z,82.80
2018-10-02T07:32:29.971Z,81.60
2018-10-02T07:34:58.970Z,82.00
2018-10-02T07:37:28.128Z,81.10
2018-10-02T07:39:57.306Z,80.80
2018-10-02T07:42:26.463Z,80.50
2018-10-02T07:44:56.096Z,79.70
2018-10-02T07:47:25.075Z,76.40
2018-10-02T07:49:54.164Z,72.10
2018-10-02T07:52:24.387Z,69.10
2018-10-02T07:54:54.479Z,70.90
2018-10-02T07:57:23.440Z,73.50
2018-10-02T07:59:52.720Z,73.30
2018-10-02T08:02:21.844Z,73.10
2018-10-02T08:04:51.109Z,74.10
2018-10-02T08:07:20.059Z,71.30
2018-10-02T08:09:49.170Z,67.90
2018-10-02T08:12:18.239Z,64.50
2018-10-02T08:14:47.229Z,62.80
2018-10-02T08:17:16.272Z,64.20
2018-10-02T08:19:45.326Z,67.70
2018-10-02T08:22:14.410Z,68.80
2018-10-02T08:24:43.534Z,67.30
2018-10-02T08:27:12.722Z,66.60
2018-10-02T08:29:41.907Z,66.10
2018-10-02T08:32:10.840Z,66.70
2018-10-02T08:34:39.952Z,67.00
2018-10-02T08:37:09.114Z,66.90
2018-10-02T08:39:38.101Z,68.40
2018-10-02T08:42:07.100Z,70.00
2018-10-02T08:44:36.201Z,70.10
2018-10-02T08:47:05.415Z,69.90
2018-10-02T08:49:34.408Z,70.00
2018-10-02T08:52:03.430Z,69.80
2018-10-02T08:54:32.401Z,69.60
2018-10-02T08:57:01.481Z,69.70
2018-10-02T08:59:30.496Z,70.20
2018-10-02T09:02:10.691Z,69.40
2018-10-02T09:04:39.699Z,68.40
2018-10-02T09:07:09.039Z,66.20
2018-10-02T09:09:38.041Z,64.30
2018-10-02T09:12:07.155Z,62.90
2018-10-02T09:14:36.183Z,62.60
2018-10-02T09:17:05.206Z,63.60
2018-10-02T09:19:34.295Z,66.10
2018-10-02T09:22:03.295Z,66.00
2018-10-02T09:24:32.357Z,65.30
2018-10-02T09:27:01.393Z,63.60
2018-10-02T09:29:30.421Z,62.50
2018-10-02T09:32:05.169Z,60.00
2018-10-02T09:34:39.699Z,58.60
2018-10-02T09:37:14.330Z,57.80
2018-10-02T09:39:48.693Z,57.60
2018-10-02T09:42:23.447Z,59.00
2018-10-02T09:44:52.708Z,60.00
2018-10-02T09:47:21.861Z,60.30
2018-10-02T09:49:51.224Z,60.50
2018-10-02T09:52:20.520Z,60.00
2018-10-02T09:54:50.341Z,59.60
2018-10-02T09:57:19.582Z,61.10
2018-10-02T09:59:52.633Z,61.00
2018-10-02T10:02:27.166Z,59.20
2018-10-02T10:04:56.686Z,60.00
2018-10-02T10:07:25.687Z,59.20
2018-10-02T10:09:54.942Z,59.70
2018-10-02T10:12:24.207Z,60.00
2018-10-02T10:21:42.531Z,61.80
2018-10-02T10:24:11.840Z,61.70
2018-10-02T10:26:41.738Z,61.60
2018-10-02T10:29:11.901Z,62.20
2018-10-02T10:31:41.109Z,62.60
2018-10-02T10:34:11.205Z,62.40
2018-10-02T10:36:40.385Z,62.60
2018-10-02T10:39:10.063Z,63.20
2018-10-02T10:41:40.088Z,63.50
2018-10-02T10:44:09.121Z,64.20
2018-10-02T10:46:38.132Z,63.50
2018-10-02T10:49:07.084Z,63.10
2018-10-02T10:51:36.061Z,62.70
2018-10-02T10:54:05.158Z,62.40
2018-10-02T10:56:34.423Z,62.60
2018-10-02T10:59:04.701Z,63.00
2018-10-02T11:01:33.787Z,62.90
2018-10-02T11:04:02.766Z,63.50
2018-10-02T11:06:31.968Z,63.50
2018-10-02T11:09:01.092Z,64.00
2018-10-02T11:11:30.126Z,64.80
2018-10-02T11:13:59.179Z,65.70
2018-10-02T11:16:28.556Z,65.70
2018-10-02T11:18:57.508Z,67.40
2018-10-02T11:21:26.492Z,69.00
2018-10-02T11:23:56.607Z,70.00
2018-10-02T11:26:25.572Z,72.10
2018-10-02T11:28:54.566Z,70.70
2018-10-02T11:31:23.618Z,71.00
2018-10-02T11:33:52.533Z,71.00
2018-10-02T11:36:21.621Z,71.30
2018-10-02T11:38:50.598Z,72.70
2018-10-02T11:41:19.572Z,74.00
2018-10-02T11:43:48.694Z,74.60
2018-10-02T11:46:18.056Z,75.00
2018-10-02T11:48:47.022Z,75.40
2018-10-02T11:51:16.115Z,74.70
2018-10-02T11:53:45.144Z,74.20
2018-10-02T11:56:14.153Z,75.90
2018-10-02T11:58:43.109Z,75.80
2018-10-02T12:01:12.135Z,76.90
2018-10-02T12:03:41.193Z,78.50
2018-10-02T12:06:10.183Z,78.90
2018-10-02T12:08:39.280Z,79.10
2018-10-02T12:11:08.266Z,78.50
2018-10-02T12:13:37.417Z,77.60
2018-10-02T12:16:06.376Z,76.50
2018-10-02T12:18:35.384Z,78.00
2018-10-02T12:21:04.676Z,78.00
2018-10-02T12:23:33.759Z,78.80
2018-10-02T12:26:02.705Z,78.70
2018-10-02T12:28:31.796Z,78.30
2018-10-02T12:31:00.779Z,77.70
2018-10-02T12:33:29.793Z,78.40
2018-10-02T12:35:58.748Z,78.30
2018-10-02T12:38:27.857Z,79.10
2018-10-02T12:40:56.903Z,78.80
2018-10-02T12:43:25.961Z,79.00
2018-10-02T12:45:54.918Z,78.20
2018-10-02T12:48:25.907Z,79.50
2018-10-02T12:50:54.907Z,80.00
2018-10-02T12:53:23.953Z,79.80
2018-10-02T12:55:52.975Z,79.90
2018-10-02T12:58:21.971Z,80.10
2018-10-02T13:00:51.128Z,80.20
2018-10-02T13:03:20.532Z,81.80
2018-10-02T13:05:50.178Z,82.80
2018-10-02T13:08:29.209Z,83.20
2018-10-02T13:10:58.300Z,83.30
2018-10-02T13:13:30.689Z,83.80
2018-10-02T13:15:59.818Z,84.30
2018-10-02T13:18:28.935Z,84.00
2018-10-02T13:20:57.992Z,84.60
2018-10-02T13:23:27.232Z,86.50
2018-10-02T13:25:56.234Z,87.10
2018-10-02T13:28:25.284Z,88.10
2018-10-02T13:30:54.476Z,88.40
2018-10-02T13:33:23.480Z,88.00
2018-10-02T13:35:52.707Z,88.80
2018-10-02T13:38:22.913Z,90.30
2018-10-02T13:40:52.135Z,90.10
2018-10-02T13:43:21.409Z,90.60
2018-10-02T13:45:50.427Z,91.20
2018-10-02T13:48:19.511Z,90.80
2018-10-02T13:50:49.596Z,90.70
2018-10-02T13:53:19.261Z,90.70
2018-10-02T13:55:48.443Z,90.60
2018-10-02T13:58:17.661Z,90.80
2018-10-02T14:00:46.720Z,91.00
2018-10-02T14:03:16.023Z,91.00
2018-10-02T14:05:45.096Z,91.00
2018-10-02T14:08:14.895Z,91.20
2018-10-02T14:10:44.078Z,90.80
2018-10-02T14:13:13.566Z,91.40
2018-10-02T14:15:42.826Z,91.80
2018-10-02T14:18:11.810Z,92.60
2018-10-02T14:20:40.898Z,92.80
2018-10-02T14:23:10.259Z,93.30
2018-10-02T14:25:39.338Z,93.30
2018-10-02T14:28:08.486Z,93.40
2018-10-02T14:30:37.556Z,93.40
2018-10-02T14:33:06.632Z,93.20
2018-10-02T14:35:35.772Z,92.60
2018-10-02T14:38:05.011Z,93.00
2018-10-02T14:40:34.082Z,93.00
2018-10-02T14:43:03.413Z,92.30
2018-10-02T14:45:32.566Z,92.20
2018-10-02T14:48:01.603Z,92.40
2018-10-02T14:50:31.958Z,91.80
2018-10-02T14:53:01.019Z,91.40
2018-10-02T14:55:30.431Z,91.30
2018-10-02T14:57:59.584Z,91.10
2018-10-02T15:00:28.577Z,91.10
2018-10-02T15:02:57.649Z,91.20
2018-10-02T15:05:27.020Z,91.20
2018-10-02T15:07:59.151Z,91.00
2018-10-02T15:10:28.996Z,91.60
2018-10-02T15:12:58.321Z,91.90
2018-10-02T15:15:30.637Z,92.40
2018-10-02T15:17:59.877Z,92.50
2018-10-02T15:20:29.109Z,92.70
2018-10-02T15:22:58.293Z,93.30
2018-10-02T15:25:27.379Z,93.20
2018-10-02T15:27:58.826Z,93.80
2018-10-02T15:30:28.427Z,93.90
2018-10-02T15:32:57.588Z,94.10
2018-10-02T15:35:26.812Z,94.10
2018-10-02T15:37:55.972Z,94.40
2018-10-02T15:40:25.060Z,94.60
2018-10-02T15:42:54.140Z,94.50
2018-10-02T15:45:23.364Z,94.70
2018-10-02T15:47:52.681Z,94.80
2018-10-02T15:50:22.148Z,94.70
2018-10-02T15:52:51.330Z,94.70
2018-10-02T15:55:20.504Z,94.60
2018-10-02T15:57:49.639Z,94.40
2018-10-02T16:00:19.481Z,94.30
2018-10-02T16:02:48.911Z,94.20
2018-10-02T16:05:18.050Z,94.30
2018-10-02T16:07:47.295Z,94.10
2018-10-02T16:10:16.510Z,94.30
2018-10-02T16:12:45.577Z,94.10
2018-10-02T16:15:14.693Z,94.30
2018-10-02T16:17:43.822Z,94.20
2018-10-02T16:20:12.945Z,94.40
2018-10-02T16:22:42.046Z,94.10
2018-10-02T16:25:11.224Z,94.00
2018-10-02T16:27:40.289Z,94.50
2018-10-02T16:30:09.407Z,94.10
2018-10-02T16:32:38.512Z,94.30
2018-10-02T16:35:07.802Z,94.20
2018-10-02T16:37:36.977Z,94.10
2018-10-02T16:40:06.172Z,94.10
2018-10-02T16:42:35.451Z,94.20
2018-10-02T16:45:04.589Z,94.00
2018-10-02T16:47:34.332Z,94.10
2018-10-02T16:50:03.642Z,94.30
2018-10-02T16:52:32.760Z,94.40
2018-10-02T16:55:10.102Z,94.40
2018-10-02T16:57:39.390Z,94.40
2018-10-02T17:00:09.212Z,94.50
2018-10-02T17:02:38.390Z,94.50
2018-10-02T17:05:07.578Z,94.50
2018-10-02T17:07:36.699Z,94.70
2018-10-02T17:10:05.920Z,94.70
2018-10-02T17:12:35.187Z,94.40
2018-10-02T17:15:04.770Z,94.40
2018-10-02T17:17:34.149Z,94.30
2018-10-02T17:20:03.954Z,94.20
2018-10-02T17:22:32.980Z,94.20
2018-10-02T17:25:03.027Z,94.30
2018-10-02T17:27:32.387Z,94.40
2018-10-02T17:30:01.498Z,94.50
2018-10-02T17:32:30.673Z,94.50
2018-10-02T17:34:59.943Z,94.50
2018-10-02T17:37:29.297Z,94.80
2018-10-02T17:39:59.844Z,95.00
2018-10-02T17:42:29.054Z,95.30
2018-10-02T17:44:58.502Z,95.60
2018-10-02T17:47:29.245Z,95.80
2018-10-02T17:49:58.636Z,95.80
2018-10-02T17:52:28.026Z,95.90
2018-10-02T17:54:57.592Z,96.00
2018-10-02T17:57:26.680Z,96.20
2018-10-02T17:59:56.141Z,96.60
2018-10-02T18:02:25.302Z,96.40
2018-10-02T18:04:54.511Z,96.50
2018-10-02T18:07:23.922Z,96.70
2018-10-02T18:09:52.978Z,96.80
2018-10-02T18:12:22.425Z,96.90
2018-10-02T18:14:51.764Z,97.20
2018-10-02T18:17:22.852Z,97.20
2018-10-02T18:19:54.671Z,97.30
2018-10-02T18:22:33.224Z,97.30
2018-10-02T18:25:06.352Z,97.40
2018-10-02T18:27:39.321Z,97.20
2018-10-02T18:30:13.263Z,97.10
2018-10-02T18:32:42.701Z,97.10
2018-10-02T18:35:12.173Z,97.20
2018-10-02T18:37:41.758Z,97.10
2018-10-02T18:40:11.152Z,97.20
2018-10-02T18:42:40.853Z,97.10
2018-10-02T18:45:10.399Z,97.10
2018-10-02T18:47:40.778Z,97.10
2018-10-02T18:50:11.160Z,97.10
2018-10-02T18:53:09.762Z,97.20
2018-10-02T18:55:52.212Z,97.10
2018-10-02T18:58:37.369Z,97.10
2018-10-02T19:03:57.980Z,97.30
2018-10-02T19:06:43.648Z,97.30
2018-10-02T19:09:27.794Z,97.30
2018-10-02T19:12:07.406Z,97.30
2018-10-02T19:14:48.025Z,97.40
2018-10-02T19:17:35.146Z,97.30
2018-10-02T19:20:11.352Z,97.30
2018-10-02T19:22:44.485Z,97.20
2018-10-02T19:25:28.197Z,97.20
2018-10-02T19:28:01.608Z,97.30
2018-10-02T19:30:41.344Z,97.30
2018-10-02T19:33:29.295Z,97.30
2018-10-02T19:38:48.488Z,97.20
2018-10-02T19:41:32.740Z,97.30
2018-10-02T19:44:41.267Z,97.40
2018-10-02T19:47:11.689Z,97.20
2018-10-02T19:49:41.987Z,97.20
2018-10-02T19:53:41.854Z,97.60
2018-10-02T19:56:18.061Z,97.30
2018-10-02T19:58:53.936Z,97.30
2018-10-02T20:01:27.829Z,97.20
2018-10-02T20:03:58.956Z,97.20
2018-10-02T20:06:34.338Z,97.30
2018-10-02T20:09:18.127Z,97.10
2018-10-02T20:11:57.223Z,97.30
2018-10-02T20:14:32.640Z,97.10
2018-10-02T20:17:04.014Z,97.20
2018-10-02T20:19:45.108Z,97.00
2018-10-02T20:22:34.689Z,97.00
2018-10-02T20:25:29.455Z,97.10
2018-10-02T20:30:40.396Z,97.20
2018-10-02T20:33:14.146Z,97.10
2018-10-02T20:35:46.585Z,97.10
2018-10-02T20:38:16.565Z,97.20
2018-10-02T20:40:48.944Z,97.00
2018-10-02T20:43:21.000Z,97.00
2018-10-02T20:45:52.712Z,97.00
2018-10-02T20:48:30.426Z,97.00
2018-10-02T20:56:57.748Z,96.60
2018-10-02T20:59:28.375Z,96.60
2018-10-02T21:02:03.018Z,96.60
2018-10-02T21:04:57.518Z,96.50
2018-10-02T21:07:51.190Z,96.50
2018-10-02T21:10:32.783Z,96.50
2018-10-02T21:16:04.188Z,96.50
2018-10-02T21:18:35.110Z,96.50
2018-10-02T21:21:11.841Z,96.50
2018-10-02T21:23:44.267Z,96.40
2018-10-02T21:26:22.682Z,96.20
2018-10-02T21:28:56.692Z,96.10
2018-10-02T21:31:34.983Z,95.70
2018-10-02T21:34:08.520Z,95.70
2018-10-02T21:36:38.176Z,95.50
2018-10-02T21:39:10.950Z,95.40
2018-10-02T21:41:45.171Z,95.20
2018-10-02T21:44:17.515Z,95.10
2018-10-02T21:46:49.829Z,95.00
2018-10-02T21:49:23.571Z,95.00
2018-10-02T21:51:53.177Z,95.00
2018-10-02T21:54:24.849Z,95.10
2018-10-02T21:56:54.232Z,95.10
2018-10-02T21:59:23.581Z,95.00
2018-10-02T22:01:53.804Z,95.00
2018-10-02T22:04:28.997Z,94.70
2018-10-02T22:07:02.831Z,94.80
2018-10-02T22:09:36.611Z,94.80
2018-10-02T22:12:13.472Z,94.80
2018-10-02T22:14:42.946Z,94.70
2018-10-02T22:17:12.768Z,94.70
2018-10-02T22:19:42.915Z,94.70
2018-10-02T22:22:13.594Z,94.70
2018-10-02T22:24:45.986Z,94.40
2018-10-02T22:27:20.056Z,94.30
2018-10-02T22:29:53.800Z,94.20
2018-10-02T22:32:23.069Z,94.10
2018-10-02T22:34:53.060Z,94.10
2018-10-02T22:37:22.842Z,94.10
2018-10-02T22:39:53.218Z,93.90
2018-10-02T22:42:26.070Z,93.60
2018-10-02T22:44:56.063Z,93.30
2018-10-02T22:47:25.320Z,93.30
2018-10-02T22:49:54.991Z,93.20
2018-10-02T22:52:24.002Z,92.70
2018-10-02T22:54:53.373Z,92.70
2018-10-02T22:57:22.570Z,92.50
2018-10-02T22:59:52.075Z,92.40
2018-10-02T23:02:21.441Z,92.30
2018-10-02T23:04:50.556Z,92.30
2018-10-02T23:07:20.197Z,92.30
2018-10-02T23:09:49.257Z,92.50
2018-10-02T23:12:18.450Z,92.50
2018-10-02T23:14:47.659Z,92.50
2018-10-02T23:17:16.966Z,92.40
2018-10-02T23:19:46.180Z,92.30
2018-10-02T23:22:15.302Z,92.40
2018-10-02T23:24:44.638Z,92.20
2018-10-02T23:27:13.679Z,92.00
2018-10-02T23:29:43.774Z,91.90
2018-10-02T23:32:13.206Z,91.90
2018-10-02T23:34:42.235Z,91.70
2018-10-02T23:37:11.567Z,91.70
